createdAt,value
2022-08-21T00:01:40.060Z,38.60
2022-08-21T00:04:07.701Z,38.78
2022-08-21T00:06:34.799Z,38.73
2022-08-21T00:09:06.245Z,38.70
2022-08-21T00:11:33.329Z,38.76
2022-08-21T00:14:00.031Z,38.88
2022-08-21T00:16:26.597Z,39.01
2022-08-21T00:18:53.207Z,38.94
2022-08-21T00:21:19.745Z,39.00
2022-08-21T00:23:46.291Z,38.78
2022-08-21T00:26:12.897Z,39.12
2022-08-21T00:28:39.479Z,39.27
2022-08-21T00:31:06.425Z,39.94
2022-08-21T00:33:33.545Z,39.90
2022-08-21T00:36:01.818Z,39.99
2022-08-21T00:38:28.359Z,40.10
2022-08-21T00:40:56.684Z,40.31
2022-08-21T00:43:25.332Z,39.97
2022-08-21T00:45:52.090Z,40.19
2022-08-21T00:48:18.684Z,40.15
2022-08-21T00:50:49.670Z,40.13
2022-08-21T00:53:16.261Z,40.59
2022-08-21T00:55:42.905Z,40.15
2022-08-21T00:58:11.212Z,40.16
2022-08-21T01:00:39.529Z,40.30
2022-08-21T01:03:09.060Z,40.39
2022-08-21T01:05:35.976Z,40.29
2022-08-21T01:08:02.702Z,40.48
2022-08-21T01:10:30.044Z,40.53
2022-08-21T01:12:58.261Z,40.56
2022-08-21T01:15:28.028Z,40.49
2022-08-21T01:17:55.660Z,40.52
2022-08-21T01:20:22.411Z,40.81
2022-08-21T01:22:59.395Z,41.13
2022-08-21T01:25:26.195Z,40.78
2022-08-21T01:27:52.781Z,40.90
2022-08-21T01:30:23.194Z,40.90
2022-08-21T01:32:50.275Z,41.31
2022-08-21T01:35:17.666Z,41.33
2022-08-21T01:37:44.821Z,41.10
2022-08-21T01:40:12.004Z,41.29
2022-08-21T01:42:38.863Z,41.88
2022-08-21T01:45:06.517Z,41.68
2022-08-21T01:47:33.702Z,41.89
2022-08-21T01:50:00.385Z,41.92
2022-08-21T01:52:27.566Z,42.04
2022-08-21T01:54:55.687Z,42.44
2022-08-21T01:57:22.748Z,42.17
2022-08-21T01:59:53.224Z,42.86
2022-08-21T02:02:20.084Z,42.44
2022-08-21T02:04:46.667Z,42.80
2022-08-21T02:07:13.376Z,42.90
2022-08-21T02:09:40.374Z,42.82
2022-08-21T02:12:07.069Z,43.08
2022-08-21T02:14:33.737Z,43.17
2022-08-21T02:17:05.229Z,43.22
2022-08-21T02:19:40.205Z,43.39
2022-08-21T02:22:11.112Z,43.41
2022-08-21T02:24:38.474Z,43.02
2022-08-21T02:27:26.094Z,43.06
2022-08-21T02:29:53.780Z,42.97
2022-08-21T02:32:20.838Z,42.65
2022-08-21T02:34:47.413Z,42.80
2022-08-21T02:37:14.003Z,42.72
2022-08-21T02:39:40.815Z,42.98
2022-08-21T02:42:07.561Z,42.65
2022-08-21T02:44:34.728Z,42.48
2022-08-21T02:47:01.752Z,42.30
2022-08-21T02:49:28.306Z,42.54
2022-08-21T02:51:54.859Z,42.35
2022-08-21T02:54:21.481Z,42.30
2022-08-21T02:56:48.016Z,41.99
2022-08-21T02:59:14.706Z,42.02
2022-08-21T03:01:41.285Z,41.93
2022-08-21T03:04:08.065Z,42.01
2022-08-21T03:06:34.824Z,42.20
2022-08-21T03:09:01.738Z,41.93
2022-08-21T03:11:28.389Z,41.66
2022-08-21T03:13:54.982Z,41.94
2022-08-21T03:16:21.762Z,42.29
2022-08-21T03:18:48.658Z,42.33
2022-08-21T03:21:15.265Z,42.08
2022-08-21T03:23:43.014Z,42.29
2022-08-21T03:26:11.908Z,41.71
2022-08-21T03:28:39.016Z,41.72
2022-08-21T03:31:06.733Z,41.75
2022-08-21T03:33:33.555Z,42.19
2022-08-21T03:36:05.500Z,41.80
2022-08-21T03:38:32.982Z,41.99
2022-08-21T03:41:00.267Z,42.47
2022-08-21T03:43:27.629Z,42.19
2022-08-21T03:45:57.924Z,42.17
2022-08-21T03:48:24.543Z,42.47
2022-08-21T03:50:52.985Z,42.41
2022-08-21T03:53:19.815Z,42.40
2022-08-21T03:55:47.745Z,42.91
2022-08-21T03:58:15.998Z,42.51
2022-08-21T04:00:44.902Z,42.65
2022-08-21T04:03:11.450Z,42.62
2022-08-21T04:05:38.468Z,43.00
2022-08-21T04:08:06.449Z,42.67
2022-08-21T04:10:35.337Z,42.35
2022-08-21T04:13:02.364Z,42.50
2022-08-21T04:15:29.323Z,42.63
2022-08-21T04:17:56.045Z,42.92
2022-08-21T04:20:22.894Z,43.00
2022-08-21T04:22:51.395Z,42.91
2022-08-21T04:25:20.015Z,43.39
2022-08-21T04:27:46.754Z,43.31
2022-08-21T04:30:14.419Z,43.63
2022-08-21T04:32:44.169Z,43.61
2022-08-21T04:35:11.411Z,43.75
2022-08-21T04:37:41.617Z,43.89
2022-08-21T04:40:10.466Z,43.81
2022-08-21T04:42:42.633Z,44.14
2022-08-21T04:45:09.272Z,44.59
2022-08-21T04:47:41.684Z,45.10
2022-08-21T04:50:19.245Z,45.36
2022-08-21T04:53:03.842Z,45.44
2022-08-21T04:55:30.463Z,45.64
2022-08-21T04:57:58.024Z,45.19
2022-08-21T05:00:25.751Z,44.94
2022-08-21T05:02:57.305Z,44.84
2022-08-21T05:05:24.237Z,44.74
2022-08-21T05:07:51.119Z,45.00
2022-08-21T05:10:17.776Z,45.06
2022-08-21T05:12:44.781Z,45.48
2022-08-21T05:15:13.608Z,46.04
2022-08-21T05:17:41.100Z,45.10
2022-08-21T05:20:08.056Z,44.84
2022-08-21T05:22:34.581Z,44.66
2022-08-21T05:25:01.125Z,44.97
2022-08-21T05:27:30.573Z,44.57
2022-08-21T05:29:58.420Z,44.87
2022-08-21T05:32:25.097Z,44.93
2022-08-21T05:34:51.712Z,45.26
2022-08-21T05:37:18.210Z,44.89
2022-08-21T05:40:21.906Z,44.58
2022-08-21T05:42:31.548Z,44.90
2022-08-21T05:44:58.128Z,44.39
2022-08-21T05:47:25.772Z,44.89
2022-08-21T05:49:52.280Z,44.42
2022-08-21T05:52:22.181Z,44.66
2022-08-21T05:54:48.802Z,45.28
2022-08-21T05:57:15.491Z,44.61
2022-08-21T05:59:42.190Z,44.13
2022-08-21T06:02:12.188Z,44.37
2022-08-21T06:04:39.528Z,44.33
2022-08-21T06:07:06.427Z,44.69
2022-08-21T06:09:33.546Z,44.45
2022-08-21T06:12:03.815Z,44.87
2022-08-21T06:14:30.463Z,44.42
2022-08-21T06:17:02.416Z,43.83
2022-08-21T06:19:29.512Z,43.33
2022-08-21T06:21:55.994Z,43.36
2022-08-21T06:24:22.506Z,43.37
2022-08-21T06:26:49.019Z,43.15
2022-08-21T06:29:18.197Z,42.99
2022-08-21T06:31:48.968Z,42.48
2022-08-21T06:34:15.911Z,42.05
2022-08-21T06:36:43.842Z,41.79
2022-08-21T06:39:16.279Z,42.34
2022-08-21T06:41:51.428Z,41.90
2022-08-21T06:44:18.851Z,41.86
2022-08-21T06:46:46.524Z,41.78
2022-08-21T06:49:21.548Z,41.72
2022-08-21T06:51:48.635Z,41.06
2022-08-21T06:54:15.172Z,37.95
2022-08-21T06:56:41.856Z,36.42
2022-08-21T06:59:08.551Z,34.96
2022-08-21T07:01:35.309Z,34.78
2022-08-21T07:04:01.938Z,35.34
2022-08-21T07:06:28.560Z,36.16
2022-08-21T07:08:55.669Z,36.67
2022-08-21T07:11:26.262Z,37.77
2022-08-21T07:13:54.196Z,38.02
2022-08-21T07:16:21.385Z,38.35
2022-08-21T07:18:48.238Z,37.88
2022-08-21T07:21:16.112Z,37.78
2022-08-21T07:23:44.897Z,37.93
2022-08-21T07:26:12.354Z,38.21
2022-08-21T07:28:39.036Z,38.77
2022-08-21T07:31:06.428Z,38.86
2022-08-21T07:33:34.471Z,39.11
2022-08-21T07:36:01.137Z,38.96
2022-08-21T07:38:28.055Z,38.95
2022-08-21T07:40:56.467Z,38.72
2022-08-21T07:43:23.467Z,38.42
2022-08-21T07:45:54.262Z,39.12
2022-08-21T07:48:21.433Z,39.03
2022-08-21T07:50:48.459Z,39.31
2022-08-21T07:53:15.407Z,39.17
2022-08-21T07:55:42.177Z,38.95
2022-08-21T07:58:08.775Z,38.71
2022-08-21T08:00:35.737Z,38.52
2022-08-21T08:03:03.640Z,38.24
2022-08-21T08:05:31.130Z,38.81
2022-08-21T08:07:57.711Z,38.34
2022-08-21T08:10:25.339Z,38.53
2022-08-21T08:12:52.803Z,38.49
2022-08-21T08:15:22.393Z,38.32
2022-08-21T08:17:49.341Z,38.17
2022-08-21T08:20:16.716Z,37.93
2022-08-21T08:22:43.951Z,37.96
2022-08-21T08:25:18.118Z,38.12
2022-08-21T08:27:44.733Z,37.66
2022-08-21T08:30:12.786Z,37.56
2022-08-21T08:32:39.968Z,37.04
2022-08-21T08:35:07.138Z,31.51
2022-08-21T08:37:34.826Z,25.23
2022-08-21T08:40:03.509Z,20.91
2022-08-21T08:42:34.678Z,18.03
2022-08-21T08:45:06.094Z,16.78
2022-08-21T08:47:35.621Z,14.51
2022-08-21T08:50:05.635Z,13.56
2022-08-21T08:52:34.423Z,12.56
2022-08-21T08:55:09.655Z,11.92
2022-08-21T08:57:37.337Z,11.26
2022-08-21T09:00:10.182Z,10.31
2022-08-21T09:02:39.168Z,10.04
2022-08-21T09:05:06.385Z,9.19
2022-08-21T09:07:33.019Z,9.91
2022-08-21T09:10:09.390Z,9.45
2022-08-21T09:12:40.395Z,9.61
2022-08-21T09:15:07.443Z,8.64
2022-08-21T09:17:40.186Z,8.24
2022-08-21T09:20:15.463Z,7.73
2022-08-21T09:22:45.184Z,7.52
2022-08-21T09:25:26.755Z,6.82
2022-08-21T09:27:53.644Z,7.26
2022-08-21T09:30:24.495Z,6.96
2022-08-21T09:32:51.153Z,6.57
2022-08-21T09:35:20.920Z,6.05
2022-08-21T09:37:49.467Z,6.14
2022-08-21T09:40:22.366Z,6.34
2022-08-21T09:42:57.303Z,6.20
2022-08-21T09:45:24.097Z,6.28
2022-08-21T09:47:50.759Z,5.75
2022-08-21T09:50:19.550Z,5.73
2022-08-21T09:53:04.400Z,5.33
2022-08-21T09:55:49.641Z,4.95
2022-08-21T09:58:17.033Z,4.92
2022-08-21T10:00:43.751Z,5.72
2022-08-21T10:03:15.737Z,5.49
2022-08-21T10:05:52.102Z,5.25
2022-08-21T10:08:22.948Z,5.00
2022-08-21T10:10:56.534Z,4.68
2022-08-21T10:13:30.589Z,4.74
2022-08-21T10:16:17.595Z,4.47
2022-08-21T10:18:51.076Z,4.50
2022-08-21T10:21:27.280Z,4.08
2022-08-21T10:23:53.841Z,4.37
2022-08-21T10:26:30.320Z,4.32
2022-08-21T10:28:56.841Z,4.21
2022-08-21T10:31:34.135Z,4.19
2022-08-21T10:34:00.645Z,5.60
2022-08-21T10:36:34.813Z,5.34
2022-08-21T10:39:26.549Z,5.63
2022-08-21T10:42:11.380Z,5.97
2022-08-21T10:44:47.889Z,5.68
2022-08-21T10:47:23.632Z,4.31
2022-08-21T10:49:59.285Z,4.35
2022-08-21T10:52:48.829Z,3.97
2022-08-21T10:55:18.237Z,3.63
2022-08-21T10:57:48.569Z,3.24
2022-08-21T11:00:20.499Z,3.35
2022-08-21T11:02:54.744Z,3.37
2022-08-21T11:05:39.693Z,3.55
2022-08-21T11:08:12.521Z,3.16
2022-08-21T11:10:40.895Z,3.57
2022-08-21T11:13:20.980Z,3.41
2022-08-21T11:15:57.206Z,3.90
2022-08-21T11:18:33.250Z,3.74
2022-08-21T11:21:18.801Z,3.21
2022-08-21T11:23:48.337Z,3.96
2022-08-21T11:26:25.773Z,3.66
2022-08-21T11:28:55.789Z,4.12
2022-08-21T11:31:22.293Z,3.86
2022-08-21T11:34:07.583Z,3.49
2022-08-21T11:36:43.066Z,3.76
2022-08-21T11:39:21.128Z,4.27
2022-08-21T11:42:00.600Z,4.32
2022-08-21T11:44:46.006Z,3.80
2022-08-21T11:47:24.711Z,4.60
2022-08-21T11:50:03.488Z,4.29
2022-08-21T11:52:32.728Z,4.57
2022-08-21T11:55:04.216Z,5.11
2022-08-21T11:57:34.967Z,4.38
2022-08-21T12:00:20.130Z,4.71
2022-08-21T12:02:50.738Z,4.56
2022-08-21T12:05:43.715Z,4.68
2022-08-21T12:08:10.255Z,4.74
2022-08-21T12:10:40.887Z,4.84
2022-08-21T12:13:09.365Z,4.76
2022-08-21T12:15:36.181Z,5.51
2022-08-21T12:18:04.704Z,5.38
2022-08-21T12:20:50.576Z,5.68
2022-08-21T12:23:19.467Z,7.80
2022-08-21T12:25:48.345Z,8.29
2022-08-21T12:28:23.993Z,10.64
2022-08-21T12:30:53.857Z,12.17
2022-08-21T12:33:27.119Z,13.51
2022-08-21T12:36:02.266Z,13.84
2022-08-21T12:38:30.200Z,14.11
2022-08-21T12:40:58.360Z,15.54
2022-08-21T12:43:36.872Z,16.29
2022-08-21T12:46:05.575Z,16.85
2022-08-21T12:48:32.115Z,16.52
2022-08-21T12:51:13.315Z,17.34
2022-08-21T12:53:42.906Z,17.50
2022-08-21T12:56:10.311Z,17.91
2022-08-21T12:58:37.455Z,17.96
2022-08-21T13:01:06.861Z,17.54
2022-08-21T13:03:36.324Z,18.08
2022-08-21T13:06:04.962Z,17.80
2022-08-21T13:08:36.417Z,18.04
2022-08-21T13:11:09.019Z,18.82
2022-08-21T13:13:45.720Z,18.76
2022-08-21T13:16:14.416Z,18.80
2022-08-21T13:18:53.245Z,18.51
2022-08-21T13:21:22.048Z,18.29
2022-08-21T13:23:49.079Z,18.59
2022-08-21T13:26:18.835Z,19.64
2022-08-21T13:28:48.300Z,19.40
2022-08-21T13:31:19.011Z,18.92
2022-08-21T13:33:45.767Z,19.02
2022-08-21T13:36:18.432Z,18.91
2022-08-21T13:38:46.111Z,18.61
2022-08-21T13:41:30.251Z,18.10
2022-08-21T13:44:01.308Z,18.33
2022-08-21T13:46:30.595Z,18.03
2022-08-21T13:48:57.439Z,18.14
2022-08-21T13:51:24.037Z,18.43
2022-08-21T13:53:55.805Z,18.99
2022-08-21T13:56:27.574Z,19.00
2022-08-21T13:58:55.698Z,19.35
2022-08-21T14:01:34.038Z,18.76
2022-08-21T14:04:03.554Z,19.29
2022-08-21T14:06:34.462Z,19.31
2022-08-21T14:09:02.531Z,19.18
2022-08-21T14:11:34.348Z,18.84
2022-08-21T14:14:07.622Z,18.86
2022-08-21T14:16:47.891Z,19.28
2022-08-21T14:19:20.430Z,18.99
2022-08-21T14:21:47.736Z,18.81
2022-08-21T14:24:25.232Z,19.55
2022-08-21T14:27:08.754Z,19.78
2022-08-21T14:29:40.075Z,18.99
2022-08-21T14:32:21.465Z,19.66
2022-08-21T14:34:48.681Z,19.42
2022-08-21T14:37:15.306Z,19.15
2022-08-21T14:39:45.116Z,19.43
2022-08-21T14:42:12.924Z,19.38
2022-08-21T14:44:39.821Z,20.14
2022-08-21T14:47:06.432Z,20.47
2022-08-21T14:49:33.046Z,19.44
2022-08-21T14:51:59.684Z,20.23
2022-08-21T14:54:30.695Z,20.52
2022-08-21T14:57:09.778Z,19.63
2022-08-21T14:59:36.969Z,19.78
2022-08-21T15:02:05.380Z,20.27
2022-08-21T15:04:32.987Z,20.26
2022-08-21T15:06:59.628Z,19.83
2022-08-21T15:09:26.238Z,20.05
2022-08-21T15:11:53.410Z,19.32
2022-08-21T15:14:22.007Z,19.65
2022-08-21T15:16:49.479Z,19.78
2022-08-21T15:19:16.289Z,20.37
2022-08-21T15:21:42.921Z,19.53
2022-08-21T15:24:09.785Z,19.53
2022-08-21T15:26:37.251Z,19.48
2022-08-21T15:29:06.683Z,20.27
2022-08-21T15:31:33.655Z,20.58
2022-08-21T15:34:00.197Z,20.06
2022-08-21T15:36:26.915Z,19.60
2022-08-21T15:38:53.569Z,20.06
2022-08-21T15:41:20.225Z,20.43
2022-08-21T15:43:48.715Z,20.87
2022-08-21T15:46:16.103Z,20.64
2022-08-21T15:48:42.655Z,20.67
2022-08-21T15:51:10.594Z,20.09
2022-08-21T15:53:39.581Z,19.68
2022-08-21T15:56:07.207Z,20.53
2022-08-21T15:58:33.790Z,20.73
2022-08-21T16:01:00.906Z,20.92
2022-08-21T16:03:27.603Z,21.94
2022-08-21T16:05:56.546Z,21.31
2022-08-21T16:08:23.313Z,20.24
2022-08-21T16:10:50.129Z,21.02
2022-08-21T16:13:23.658Z,21.70
2022-08-21T16:15:50.781Z,22.27
2022-08-21T16:18:18.818Z,20.96
2022-08-21T16:20:45.533Z,21.73
2022-08-21T16:23:13.292Z,21.90
2022-08-21T16:25:40.167Z,22.41
2022-08-21T16:28:09.369Z,21.67
2022-08-21T16:30:38.733Z,22.59
2022-08-21T16:33:06.485Z,21.56
2022-08-21T16:35:33.479Z,21.30
2022-08-21T16:38:00.145Z,21.24
2022-08-21T16:40:29.681Z,22.26
2022-08-21T16:42:56.380Z,22.87
2022-08-21T16:45:22.955Z,22.39
2022-08-21T16:47:49.979Z,21.57
2022-08-21T16:50:19.393Z,21.97
2022-08-21T16:52:45.990Z,23.14
2022-08-21T16:55:12.529Z,22.08
2022-08-21T16:57:39.194Z,22.57
2022-08-21T17:00:10.011Z,22.32
2022-08-21T17:02:37.666Z,22.80
2022-08-21T17:05:06.511Z,22.69
2022-08-21T17:07:41.184Z,22.74
2022-08-21T17:10:09.086Z,22.06
2022-08-21T17:12:36.315Z,22.55
2022-08-21T17:15:07.401Z,22.71
2022-08-21T17:17:35.058Z,23.31
2022-08-21T17:20:02.088Z,23.43
2022-08-21T17:22:28.785Z,23.82
2022-08-21T17:24:55.332Z,24.12
2022-08-21T17:27:26.696Z,23.30
2022-08-21T17:29:55.251Z,23.89
2022-08-21T17:32:21.986Z,23.83
2022-08-21T17:34:48.561Z,23.95
2022-08-21T17:37:15.343Z,23.77
2022-08-21T17:39:42.072Z,24.15
2022-08-21T17:42:10.271Z,23.91
2022-08-21T17:44:41.554Z,23.64
2022-08-21T17:47:08.821Z,24.31
2022-08-21T17:49:35.414Z,24.24
2022-08-21T17:52:02.049Z,23.81
2022-08-21T17:54:28.638Z,24.12
2022-08-21T17:56:55.877Z,24.76
2022-08-21T17:59:23.049Z,25.35
2022-08-21T18:01:50.232Z,24.65
2022-08-21T18:04:17.491Z,24.14
2022-08-21T18:06:44.529Z,24.49
2022-08-21T18:09:12.707Z,25.07
2022-08-21T18:11:40.146Z,24.97
2022-08-21T18:14:07.974Z,24.61
2022-08-21T18:16:35.474Z,24.97
2022-08-21T18:19:02.572Z,25.06
2022-08-21T18:21:29.833Z,25.36
2022-08-21T18:23:56.558Z,25.10
2022-08-21T18:26:34.885Z,25.21
2022-08-21T18:29:01.828Z,24.68
2022-08-21T18:31:29.991Z,25.34
2022-08-21T18:33:57.961Z,25.06
2022-08-21T18:36:26.009Z,24.95
2022-08-21T18:38:52.802Z,25.38
2022-08-21T18:41:22.681Z,25.42
2022-08-21T18:43:49.711Z,25.27
2022-08-21T18:46:19.755Z,26.83
2022-08-21T18:48:47.759Z,26.59
2022-08-21T18:51:14.546Z,26.14
2022-08-21T18:53:41.075Z,25.82
2022-08-21T18:56:15.924Z,25.76
2022-08-21T18:58:44.289Z,26.01
2022-08-21T19:01:11.025Z,26.19
2022-08-21T19:03:38.098Z,26.44
2022-08-21T19:06:04.689Z,25.66
2022-08-21T19:08:36.259Z,26.72
2022-08-21T19:11:02.976Z,26.72
2022-08-21T19:13:31.807Z,26.23
2022-08-21T19:16:02.877Z,26.39
2022-08-21T19:18:30.597Z,26.14
2022-08-21T19:20:57.653Z,26.67
2022-08-21T19:23:29.464Z,26.50
2022-08-21T19:26:00.497Z,26.82
2022-08-21T19:28:52.586Z,26.52
2022-08-21T19:31:25.159Z,27.26
2022-08-21T19:33:57.567Z,26.80
2022-08-21T19:36:28.072Z,27.17
2022-08-21T19:38:54.607Z,27.24
2022-08-21T19:41:22.871Z,27.42
2022-08-21T19:43:53.168Z,27.32
2022-08-21T19:46:23.094Z,27.05
2022-08-21T19:48:49.994Z,26.85
2022-08-21T19:51:16.639Z,27.58
2022-08-21T19:53:43.373Z,27.59
2022-08-21T19:56:12.712Z,27.36
2022-08-21T19:58:40.111Z,27.52
2022-08-21T20:01:11.467Z,27.55
2022-08-21T20:03:43.556Z,28.13
2022-08-21T20:06:10.821Z,28.29
2022-08-21T20:08:37.878Z,28.58
2022-08-21T20:11:04.911Z,28.12
2022-08-21T20:13:33.685Z,28.40
2022-08-21T20:16:01.225Z,28.40
2022-08-21T20:18:28.293Z,28.46
2022-08-21T20:20:55.901Z,28.60
2022-08-21T20:23:27.885Z,28.85
2022-08-21T20:25:57.913Z,29.13
2022-08-21T20:28:24.577Z,29.77
2022-08-21T20:30:52.740Z,29.70
2022-08-21T20:33:19.263Z,29.99
2022-08-21T20:35:48.602Z,30.14
2022-08-21T20:38:15.542Z,30.13
2022-08-21T20:40:43.603Z,31.38
2022-08-21T20:43:12.697Z,30.28
2022-08-21T20:45:40.543Z,29.91
2022-08-21T20:48:12.208Z,30.07
2022-08-21T20:50:44.561Z,30.70
2022-08-21T20:53:23.521Z,30.79
2022-08-21T20:55:51.121Z,30.48
2022-08-21T20:58:38.485Z,30.47
2022-08-21T21:01:07.476Z,30.13
2022-08-21T21:03:37.399Z,30.17
2022-08-21T21:06:07.903Z,30.58
2022-08-21T21:08:41.859Z,30.25
2022-08-21T21:11:17.102Z,30.69
2022-08-21T21:13:48.072Z,30.67
2022-08-21T21:16:20.613Z,30.31
2022-08-21T21:18:50.112Z,30.51
2022-08-21T21:21:33.293Z,30.23
2022-08-21T21:24:05.471Z,31.07
2022-08-21T21:26:46.139Z,30.94
2022-08-21T21:32:18.001Z,31.11
2022-08-21T21:34:46.394Z,30.93
2022-08-21T21:37:25.346Z,31.68
2022-08-21T21:39:55.073Z,31.91
2022-08-21T21:45:23.506Z,32.56
2022-08-21T21:48:01.016Z,32.71
2022-08-21T21:50:36.917Z,32.95
2022-08-21T21:53:20.829Z,33.36
2022-08-21T21:55:56.475Z,32.92
2022-08-21T21:58:24.240Z,32.68
2022-08-21T22:01:00.086Z,32.23
2022-08-21T22:03:31.508Z,32.58
2022-08-21T22:06:10.064Z,32.56
2022-08-21T22:08:36.912Z,32.47
2022-08-21T22:11:28.618Z,32.21
2022-08-21T22:14:15.976Z,32.63
2022-08-21T22:16:46.713Z,32.75
2022-08-21T22:19:22.052Z,32.47
2022-08-21T22:22:00.604Z,32.47
2022-08-21T22:24:33.254Z,32.25
2022-08-21T22:27:02.693Z,32.64
2022-08-21T22:29:41.851Z,32.39
2022-08-21T22:32:10.068Z,32.66
2022-08-21T22:34:37.079Z,32.52
2022-08-21T22:37:07.467Z,33.10
2022-08-21T22:39:39.754Z,33.48
2022-08-21T22:42:27.451Z,33.84
2022-08-21T22:44:59.459Z,33.61
2022-08-21T22:47:38.312Z,33.59
2022-08-21T22:50:06.837Z,33.77
2022-08-21T22:52:35.965Z,34.28
2022-08-21T22:55:17.921Z,33.77
2022-08-21T22:58:04.303Z,34.15
2022-08-21T23:00:36.510Z,33.68
2022-08-21T23:03:03.606Z,34.15
2022-08-21T23:05:30.708Z,34.39
2022-08-21T23:08:16.146Z,34.37
2022-08-21T23:10:56.411Z,34.77
2022-08-21T23:13:23.022Z,34.79
2022-08-21T23:15:55.756Z,34.99
2022-08-21T23:18:25.498Z,35.03
2022-08-21T23:21:01.084Z,35.09
2022-08-21T23:23:31.137Z,35.28
2022-08-21T23:26:22.764Z,35.22
2022-08-21T23:28:59.377Z,35.35
2022-08-21T23:31:35.157Z,34.85
2022-08-21T23:34:29.659Z,34.90
2022-08-21T23:37:17.811Z,35.00
2022-08-21T23:40:08.626Z,35.41
2022-08-21T23:42:50.524Z,35.39
2022-08-21T23:45:32.851Z,35.26
2022-08-21T23:48:29.665Z,35.36
2022-08-21T23:50:59.521Z,34.96
2022-08-21T23:53:33.800Z,35.10
2022-08-21T23:56:12.714Z,35.37
2022-08-21T23:58:42.198Z,35.47
